KLM417 EGLL-EDLW
Flight info
| Callsign | KLM417 |
|---|---|
| Flight time | 1h 4m |
| Altitude | 34000 |
| Route | BPK Q295 BRAIN M197 REDFA L620 SONEB Z841 DOMEG DOMEG2A |
| Aircraft | B739/M-SDE2E3FGHIRWXY/LB1 |
Departure
| Time | 2026-05-06 10:39 |
|---|---|
| Airport | London Heathrow Airport (EGLL) |
Arrival
| Time | 2026-05-06 11:44 |
|---|---|
| Airport | Dortmund Airport (EDLW) |
| Time | Latitude | Longitude | Altitude | Speed | Heading |
|---|---|---|---|---|---|
| 2026-05-06 10:05 | 51.46912 | -0.48017 | 86 ft | 0 kts | 269° |
| 2026-05-06 10:24 | 51.46912 | -0.48013 | 86 ft | 2 kts | 269° |
| 2026-05-06 10:24 | 51.46912 | -0.47986 | 88 ft | 2 kts | 268° |
| 2026-05-06 10:24 | 51.46913 | -0.47959 | 85 ft | 2 kts | 266° |
| 2026-05-06 10:25 | 51.46915 | -0.47932 | 85 ft | 2 kts | 262° |
| 2026-05-06 10:25 | 51.46918 | -0.47906 | 87 ft | 2 kts | 256° |
| 2026-05-06 10:25 | 51.46923 | -0.47881 | 90 ft | 2 kts | 232° |
| 2026-05-06 10:25 | 51.46936 | -0.47867 | 90 ft | 2 kts | 185° |
| 2026-05-06 10:26 | 51.46940 | -0.47867 | 90 ft | 0 kts | 182° |
| 2026-05-06 10:28 | 51.46937 | -0.47867 | 90 ft | 1 kts | 182° |
| 2026-05-06 10:29 | 51.46920 | -0.47868 | 88 ft | 4 kts | 182° |
| 2026-05-06 10:29 | 51.46883 | -0.47869 | 85 ft | 7 kts | 181° |
| 2026-05-06 10:29 | 51.46852 | -0.47870 | 84 ft | 3 kts | 180° |
| 2026-05-06 10:29 | 51.46823 | -0.47870 | 84 ft | 4 kts | 180° |
| 2026-05-06 10:30 | 51.46802 | -0.47870 | 84 ft | 0 kts | 180° |
| 2026-05-06 10:30 | 51.46774 | -0.47871 | 84 ft | 8 kts | 186° |
| 2026-05-06 10:30 | 51.46742 | -0.47952 | 84 ft | 10 kts | 264° |
| 2026-05-06 10:30 | 51.46743 | -0.48062 | 83 ft | 9 kts | 270° |
| 2026-05-06 10:31 | 51.46743 | -0.48149 | 85 ft | 6 kts | 270° |
| 2026-05-06 10:31 | 51.46743 | -0.48193 | 86 ft | 2 kts | 270° |
| 2026-05-06 10:31 | 51.46743 | -0.48219 | 87 ft | 2 kts | 270° |
| 2026-05-06 10:31 | 51.46743 | -0.48245 | 87 ft | 3 kts | 269° |
| 2026-05-06 10:32 | 51.46743 | -0.48255 | 87 ft | 1 kts | 269° |
| 2026-05-06 10:32 | 51.46743 | -0.48263 | 88 ft | 1 kts | 269° |
| 2026-05-06 10:32 | 51.46743 | -0.48270 | 88 ft | 1 kts | 269° |
| 2026-05-06 10:32 | 51.46743 | -0.48278 | 88 ft | 0 kts | 269° |
| 2026-05-06 10:33 | 51.46743 | -0.48280 | 88 ft | 1 kts | 269° |
| 2026-05-06 10:33 | 51.46742 | -0.48346 | 88 ft | 10 kts | 269° |
| 2026-05-06 10:33 | 51.46741 | -0.48482 | 86 ft | 12 kts | 269° |
| 2026-05-06 10:33 | 51.46738 | -0.48614 | 85 ft | 11 kts | 268° |
| 2026-05-06 10:34 | 51.46715 | -0.48726 | 86 ft | 11 kts | 220° |
| 2026-05-06 10:34 | 51.46668 | -0.48746 | 87 ft | 0 kts | 185° |
| 2026-05-06 10:35 | 51.46645 | -0.48750 | 85 ft | 8 kts | 186° |
| 2026-05-06 10:35 | 51.46575 | -0.48780 | 86 ft | 9 kts | 194° |
| 2026-05-06 10:36 | 51.46534 | -0.48783 | 86 ft | 2 kts | 169° |
| 2026-05-06 10:36 | 51.46501 | -0.48760 | 87 ft | 9 kts | 140° |
| 2026-05-06 10:36 | 51.46480 | -0.48690 | 87 ft | 4 kts | 103° |
| 2026-05-06 10:36 | 51.46479 | -0.48675 | 86 ft | 0 kts | 97° |
| 2026-05-06 10:38 | 51.46478 | -0.48666 | 89 ft | 4 kts | 96° |
| 2026-05-06 10:38 | 51.46477 | -0.48560 | 85 ft | 17 kts | 90° |
| 2026-05-06 10:38 | 51.46479 | -0.48218 | 85 ft | 52 kts | 89° |
| 2026-05-06 10:38 | 51.46482 | -0.47321 | 82 ft | 106 kts | 89° |
| 2026-05-06 10:39 | 51.46487 | -0.45924 | 86 ft | 146 kts | 90° |
| 2026-05-06 10:39 | 51.46491 | -0.44110 | 179 ft | 169 kts | 88° |
| 2026-05-06 10:39 | 51.46402 | -0.42194 | 525 ft | 176 kts | 89° |
| 2026-05-06 10:39 | 51.46572 | -0.40274 | 960 ft | 170 kts | 64° |
| 2026-05-06 10:40 | 51.47171 | -0.38719 | 1491 ft | 165 kts | 47° |
| 2026-05-06 10:40 | 51.47939 | -0.37239 | 1801 ft | 175 kts | 48° |
| 2026-05-06 10:40 | 51.48472 | -0.36213 | 1948 ft | 186 kts | 47° |
| 2026-05-06 10:40 | 51.49358 | -0.34501 | 2303 ft | 194 kts | 48° |
| 2026-05-06 10:41 | 51.50202 | -0.32866 | 2781 ft | 193 kts | 48° |
| 2026-05-06 10:41 | 51.51111 | -0.31107 | 3243 ft | 196 kts | 49° |
| 2026-05-06 10:41 | 51.51938 | -0.29502 | 3651 ft | 197 kts | 49° |
| 2026-05-06 10:41 | 51.52730 | -0.27683 | 4094 ft | 198 kts | 59° |
| 2026-05-06 10:42 | 51.53364 | -0.25701 | 4502 ft | 201 kts | 62° |
| 2026-05-06 10:42 | 51.54030 | -0.23520 | 4839 ft | 210 kts | 62° |
| 2026-05-06 10:42 | 51.54726 | -0.21236 | 5216 ft | 214 kts | 62° |
| 2026-05-06 10:42 | 51.55361 | -0.19156 | 5571 ft | 217 kts | 62° |
| 2026-05-06 10:43 | 51.56041 | -0.16935 | 5951 ft | 220 kts | 61° |
| 2026-05-06 10:43 | 51.56733 | -0.14681 | 6214 ft | 228 kts | 61° |
| 2026-05-06 10:43 | 51.57442 | -0.12377 | 6518 ft | 233 kts | 61° |
| 2026-05-06 10:44 | 51.58973 | -0.07414 | 7085 ft | 249 kts | 61° |
| 2026-05-06 10:44 | 51.59751 | -0.04890 | 7531 ft | 252 kts | 61° |
| 2026-05-06 10:44 | 51.60529 | -0.02363 | 8117 ft | 252 kts | 61° |
| 2026-05-06 10:44 | 51.61307 | 0.00161 | 8595 ft | 256 kts | 62° |
| 2026-05-06 10:45 | 51.61861 | 0.01961 | 8947 ft | 258 kts | 62° |
| 2026-05-06 10:45 | 51.62636 | 0.04479 | 9450 ft | 260 kts | 62° |
| 2026-05-06 10:45 | 51.63579 | 0.07548 | 10013 ft | 264 kts | 62° |
| 2026-05-06 10:45 | 51.64398 | 0.10211 | 10474 ft | 266 kts | 62° |
| 2026-05-06 10:46 | 51.65222 | 0.12896 | 10959 ft | 268 kts | 62° |
| 2026-05-06 10:46 | 51.66050 | 0.15598 | 11447 ft | 270 kts | 63° |
| 2026-05-06 10:46 | 51.66882 | 0.18316 | 11941 ft | 272 kts | 63° |
| 2026-05-06 10:46 | 51.67724 | 0.21066 | 12445 ft | 274 kts | 63° |
| 2026-05-06 10:47 | 51.68571 | 0.23836 | 12936 ft | 277 kts | 63° |
| 2026-05-06 10:47 | 51.69435 | 0.26667 | 13457 ft | 279 kts | 63° |
| 2026-05-06 10:47 | 51.70298 | 0.29494 | 13955 ft | 282 kts | 63° |
| 2026-05-06 10:47 | 51.71163 | 0.32336 | 14403 ft | 284 kts | 63° |
| 2026-05-06 10:48 | 51.72037 | 0.35207 | 14865 ft | 287 kts | 63° |
| 2026-05-06 10:48 | 51.72922 | 0.38119 | 14953 ft | 289 kts | 63° |
| 2026-05-06 10:48 | 51.73808 | 0.41038 | 15002 ft | 296 kts | 63° |
| 2026-05-06 10:48 | 51.74747 | 0.44136 | 15011 ft | 317 kts | 63° |
| 2026-05-06 10:49 | 51.75747 | 0.47437 | 15024 ft | 336 kts | 63° |
| 2026-05-06 10:49 | 51.76806 | 0.50942 | 15028 ft | 349 kts | 64° |
| 2026-05-06 10:49 | 51.77879 | 0.54493 | 15018 ft | 351 kts | 64° |
| 2026-05-06 10:49 | 51.78949 | 0.58041 | 14988 ft | 350 kts | 64° |
| 2026-05-06 10:50 | 51.80012 | 0.61573 | 14985 ft | 349 kts | 64° |
| 2026-05-06 10:50 | 51.81042 | 0.65134 | 14988 ft | 349 kts | 68° |
| 2026-05-06 10:50 | 51.81730 | 0.68840 | 14998 ft | 348 kts | 76° |
| 2026-05-06 10:50 | 51.82282 | 0.72654 | 14994 ft | 348 kts | 76° |
| 2026-05-06 10:51 | 51.82842 | 0.76465 | 14990 ft | 349 kts | 76° |
| 2026-05-06 10:51 | 51.83414 | 0.80275 | 14990 ft | 349 kts | 76° |
| 2026-05-06 10:51 | 51.84023 | 0.84089 | 14995 ft | 349 kts | 74° |
| 2026-05-06 10:51 | 51.84700 | 0.87865 | 14998 ft | 350 kts | 73° |
| 2026-05-06 10:52 | 51.85400 | 0.91632 | 14991 ft | 350 kts | 73° |
| 2026-05-06 10:52 | 51.86103 | 0.95404 | 14996 ft | 350 kts | 73° |
| 2026-05-06 10:52 | 51.86854 | 0.99461 | 14991 ft | 351 kts | 73° |
| 2026-05-06 10:52 | 51.87548 | 1.03246 | 14990 ft | 351 kts | 73° |
| 2026-05-06 10:53 | 51.88248 | 1.07088 | 14991 ft | 351 kts | 73° |
| 2026-05-06 10:53 | 51.88934 | 1.10881 | 14988 ft | 351 kts | 73° |
| 2026-05-06 10:53 | 51.89617 | 1.14670 | 14991 ft | 351 kts | 73° |
| 2026-05-06 10:53 | 51.90293 | 1.18431 | 14991 ft | 351 kts | 73° |
| 2026-05-06 10:54 | 51.90974 | 1.22225 | 14990 ft | 351 kts | 73° |
| 2026-05-06 10:54 | 51.91653 | 1.26022 | 14986 ft | 351 kts | 73° |
| 2026-05-06 10:54 | 51.92331 | 1.29824 | 14987 ft | 350 kts | 73° |
| 2026-05-06 10:54 | 51.93005 | 1.33608 | 14989 ft | 350 kts | 74° |
| 2026-05-06 10:55 | 51.93680 | 1.37407 | 14990 ft | 351 kts | 74° |
| 2026-05-06 10:55 | 51.94356 | 1.41218 | 15121 ft | 350 kts | 74° |
| 2026-05-06 10:55 | 51.95021 | 1.44973 | 15943 ft | 340 kts | 74° |
| 2026-05-06 10:55 | 51.95662 | 1.48602 | 16853 ft | 330 kts | 74° |
| 2026-05-06 10:56 | 51.96283 | 1.52128 | 17755 ft | 319 kts | 75° |
| 2026-05-06 10:56 | 51.96890 | 1.55578 | 18415 ft | 317 kts | 75° |
| 2026-05-06 10:56 | 51.97498 | 1.59037 | 18806 ft | 321 kts | 75° |
| 2026-05-06 10:56 | 51.98114 | 1.62549 | 19161 ft | 325 kts | 75° |
| 2026-05-06 10:57 | 51.98733 | 1.66094 | 19564 ft | 328 kts | 75° |
| 2026-05-06 10:57 | 51.99350 | 1.69675 | 19989 ft | 330 kts | 76° |
| 2026-05-06 10:57 | 51.99931 | 1.73300 | 20393 ft | 333 kts | 77° |
| 2026-05-06 10:57 | 52.00502 | 1.76962 | 20818 ft | 335 kts | 77° |
| 2026-05-06 10:58 | 52.01071 | 1.80647 | 21225 ft | 338 kts | 77° |
| 2026-05-06 10:58 | 52.01645 | 1.84363 | 21638 ft | 340 kts | 77° |
| 2026-05-06 10:58 | 52.02224 | 1.88104 | 22057 ft | 342 kts | 77° |
| 2026-05-06 10:58 | 52.02815 | 1.91919 | 22467 ft | 345 kts | 77° |
| 2026-05-06 10:59 | 52.03403 | 1.95714 | 22859 ft | 347 kts | 77° |
| 2026-05-06 10:59 | 52.03794 | 1.98242 | 23125 ft | 349 kts | 77° |
| 2026-05-06 10:59 | 52.04395 | 2.02130 | 23528 ft | 351 kts | 77° |
| 2026-05-06 10:59 | 52.04991 | 2.05995 | 23863 ft | 353 kts | 77° |
| 2026-05-06 11:00 | 52.05590 | 2.09886 | 24195 ft | 355 kts | 77° |
| 2026-05-06 11:00 | 52.06392 | 2.15110 | 24653 ft | 357 kts | 77° |
| 2026-05-06 11:00 | 52.06790 | 2.17715 | 24878 ft | 359 kts | 78° |
| 2026-05-06 11:00 | 52.07393 | 2.21661 | 25199 ft | 361 kts | 78° |
| 2026-05-06 11:01 | 52.07998 | 2.25632 | 25517 ft | 363 kts | 78° |
| 2026-05-06 11:01 | 52.08605 | 2.29624 | 25834 ft | 365 kts | 78° |
| 2026-05-06 11:01 | 52.09224 | 2.33703 | 26150 ft | 367 kts | 78° |
| 2026-05-06 11:01 | 52.09835 | 2.37737 | 26534 ft | 366 kts | 78° |
| 2026-05-06 11:02 | 52.10434 | 2.41702 | 26945 ft | 364 kts | 78° |
| 2026-05-06 11:02 | 52.11037 | 2.45704 | 27344 ft | 363 kts | 78° |
| 2026-05-06 11:02 | 52.11651 | 2.49704 | 27698 ft | 363 kts | 77° |
| 2026-05-06 11:02 | 52.12358 | 2.53664 | 28015 ft | 365 kts | 75° |
| 2026-05-06 11:03 | 52.13116 | 2.57616 | 28346 ft | 365 kts | 75° |
| 2026-05-06 11:03 | 52.13885 | 2.61559 | 28657 ft | 365 kts | 75° |
| 2026-05-06 11:03 | 52.14651 | 2.65503 | 28962 ft | 365 kts | 75° |
| 2026-05-06 11:03 | 52.15398 | 2.69387 | 29266 ft | 365 kts | 75° |
| 2026-05-06 11:04 | 52.16154 | 2.73350 | 29553 ft | 365 kts | 75° |
| 2026-05-06 11:04 | 52.16902 | 2.77299 | 29794 ft | 365 kts | 75° |
| 2026-05-06 11:04 | 52.17650 | 2.81273 | 30041 ft | 366 kts | 76° |
| 2026-05-06 11:04 | 52.18396 | 2.85249 | 30243 ft | 366 kts | 76° |
| 2026-05-06 11:05 | 52.19141 | 2.89228 | 30631 ft | 370 kts | 75° |
| 2026-05-06 11:05 | 52.20663 | 2.97394 | 30769 ft | 381 kts | 74° |
| 2026-05-06 11:06 | 52.22220 | 3.05777 | 30705 ft | 393 kts | 75° |
| 2026-05-06 11:06 | 52.23827 | 3.14468 | 30815 ft | 407 kts | 75° |
| 2026-05-06 11:07 | 52.25495 | 3.23523 | 30952 ft | 419 kts | 75° |
| 2026-05-06 11:07 | 52.26325 | 3.28039 | 31174 ft | 421 kts | 75° |
| 2026-05-06 11:07 | 52.27188 | 3.32722 | 31458 ft | 421 kts | 75° |
| 2026-05-06 11:07 | 52.28036 | 3.37330 | 31722 ft | 422 kts | 75° |
| 2026-05-06 11:08 | 52.28879 | 3.41924 | 31930 ft | 423 kts | 75° |
| 2026-05-06 11:08 | 52.29726 | 3.46552 | 32133 ft | 425 kts | 75° |
| 2026-05-06 11:08 | 52.30573 | 3.51195 | 32328 ft | 427 kts | 75° |
| 2026-05-06 11:08 | 52.31420 | 3.55850 | 32549 ft | 428 kts | 75° |
| 2026-05-06 11:09 | 52.32268 | 3.60525 | 32748 ft | 429 kts | 75° |
| 2026-05-06 11:09 | 52.33115 | 3.65203 | 32914 ft | 431 kts | 75° |
| 2026-05-06 11:09 | 52.33983 | 3.70010 | 32919 ft | 437 kts | 75° |
| 2026-05-06 11:10 | 52.35722 | 3.79677 | 32935 ft | 449 kts | 75° |
| 2026-05-06 11:10 | 52.36813 | 3.89726 | 32919 ft | 456 kts | 92° |
| 2026-05-06 11:11 | 52.36565 | 4.00262 | 32926 ft | 465 kts | 95° |
| 2026-05-06 11:11 | 52.36231 | 4.10899 | 32919 ft | 476 kts | 95° |
| 2026-05-06 11:12 | 52.35936 | 4.21861 | 32915 ft | 484 kts | 94° |
| 2026-05-06 11:12 | 52.35657 | 4.32940 | 32899 ft | 491 kts | 94° |
| 2026-05-06 11:13 | 52.35365 | 4.44147 | 32891 ft | 495 kts | 95° |
| 2026-05-06 11:13 | 52.35060 | 4.55412 | 32868 ft | 490 kts | 95° |
| 2026-05-06 11:14 | 52.34756 | 4.66418 | 32876 ft | 477 kts | 95° |
| 2026-05-06 11:14 | 52.34452 | 4.77237 | 32896 ft | 476 kts | 95° |
| 2026-05-06 11:15 | 52.34139 | 4.88062 | 32886 ft | 479 kts | 95° |
| 2026-05-06 11:15 | 52.33815 | 4.98975 | 33125 ft | 477 kts | 94° |
| 2026-05-06 11:15 | 52.33652 | 5.04313 | 32975 ft | 463 kts | 95° |
| 2026-05-06 11:16 | 52.33247 | 5.09465 | 32884 ft | 451 kts | 104° |
| 2026-05-06 11:16 | 52.31231 | 5.19098 | 32894 ft | 448 kts | 114° |
| 2026-05-06 11:17 | 52.28881 | 5.28583 | 32897 ft | 453 kts | 113° |
| 2026-05-06 11:17 | 52.26549 | 5.38188 | 32877 ft | 454 kts | 113° |
| 2026-05-06 11:18 | 52.24205 | 5.47921 | 32877 ft | 454 kts | 113° |
| 2026-05-06 11:18 | 52.21893 | 5.57462 | 32880 ft | 454 kts | 113° |
| 2026-05-06 11:19 | 52.19559 | 5.67070 | 32867 ft | 447 kts | 113° |
| 2026-05-06 11:19 | 52.17706 | 5.74685 | 32865 ft | 420 kts | 113° |
| 2026-05-06 11:19 | 52.16645 | 5.79031 | 32843 ft | 404 kts | 113° |
| 2026-05-06 11:20 | 52.15581 | 5.83380 | 32862 ft | 388 kts | 113° |
| 2026-05-06 11:20 | 52.14602 | 5.87373 | 32861 ft | 372 kts | 113° |
| 2026-05-06 11:20 | 52.13661 | 5.91203 | 32853 ft | 357 kts | 113° |
| 2026-05-06 11:21 | 52.11854 | 5.98542 | 32827 ft | 351 kts | 113° |
| 2026-05-06 11:21 | 52.10934 | 6.02278 | 32698 ft | 358 kts | 113° |
| 2026-05-06 11:21 | 52.09998 | 6.06087 | 32615 ft | 364 kts | 112° |
| 2026-05-06 11:22 | 52.08850 | 6.14172 | 32724 ft | 369 kts | 101° |
| 2026-05-06 11:22 | 52.08051 | 6.22396 | 32868 ft | 373 kts | 101° |
| 2026-05-06 11:23 | 52.07205 | 6.30874 | 32875 ft | 385 kts | 101° |
| 2026-05-06 11:23 | 52.06305 | 6.39592 | 32873 ft | 397 kts | 101° |
| 2026-05-06 11:24 | 52.05361 | 6.48594 | 32875 ft | 409 kts | 101° |
| 2026-05-06 11:24 | 52.04373 | 6.57933 | 32861 ft | 425 kts | 101° |
| 2026-05-06 11:25 | 52.03355 | 6.67499 | 32847 ft | 438 kts | 101° |
| 2026-05-06 11:25 | 52.01810 | 6.77605 | 32850 ft | 447 kts | 114° |
| 2026-05-06 11:26 | 51.98579 | 6.86891 | 32859 ft | 456 kts | 123° |
| 2026-05-06 11:26 | 51.95178 | 6.95611 | 32833 ft | 464 kts | 123° |
| 2026-05-06 11:27 | 51.91725 | 7.04626 | 32836 ft | 470 kts | 123° |
| 2026-05-06 11:27 | 51.88783 | 7.12378 | 32832 ft | 469 kts | 123° |
| 2026-05-06 11:27 | 51.87095 | 7.16820 | 32763 ft | 455 kts | 123° |
| 2026-05-06 11:28 | 51.85455 | 7.21122 | 32567 ft | 443 kts | 123° |
| 2026-05-06 11:28 | 51.83846 | 7.25330 | 32135 ft | 436 kts | 123° |
| 2026-05-06 11:28 | 51.82253 | 7.29486 | 31577 ft | 433 kts | 123° |
| 2026-05-06 11:28 | 51.80647 | 7.33669 | 30985 ft | 430 kts | 122° |
| 2026-05-06 11:29 | 51.79011 | 7.37928 | 30441 ft | 427 kts | 122° |
| 2026-05-06 11:29 | 51.77326 | 7.42309 | 29915 ft | 422 kts | 121° |
| 2026-05-06 11:29 | 51.75783 | 7.46320 | 29356 ft | 418 kts | 121° |
| 2026-05-06 11:29 | 51.74250 | 7.50295 | 28759 ft | 416 kts | 121° |
| 2026-05-06 11:30 | 51.72707 | 7.54183 | 28150 ft | 414 kts | 127° |
| 2026-05-06 11:30 | 51.70606 | 7.57394 | 27490 ft | 414 kts | 147° |
| 2026-05-06 11:30 | 51.68066 | 7.59390 | 26956 ft | 411 kts | 164° |
| 2026-05-06 11:30 | 51.65276 | 7.60245 | 26454 ft | 407 kts | 172° |
| 2026-05-06 11:31 | 51.62476 | 7.60821 | 25949 ft | 405 kts | 173° |
| 2026-05-06 11:31 | 51.59693 | 7.61418 | 25431 ft | 403 kts | 172° |
| 2026-05-06 11:31 | 51.56884 | 7.61914 | 24929 ft | 399 kts | 182° |
| 2026-05-06 11:31 | 51.54139 | 7.61158 | 24130 ft | 394 kts | 201° |
| 2026-05-06 11:32 | 51.51728 | 7.58990 | 22757 ft | 404 kts | 220° |
| 2026-05-06 11:32 | 51.49818 | 7.55683 | 21687 ft | 403 kts | 237° |
| 2026-05-06 11:32 | 51.48432 | 7.51804 | 20960 ft | 401 kts | 241° |
| 2026-05-06 11:32 | 51.47102 | 7.47891 | 20491 ft | 395 kts | 241° |
| 2026-05-06 11:33 | 51.45754 | 7.44018 | 20050 ft | 389 kts | 240° |
| 2026-05-06 11:33 | 51.44263 | 7.40357 | 19496 ft | 386 kts | 227° |
| 2026-05-06 11:33 | 51.42370 | 7.37379 | 18982 ft | 383 kts | 218° |
| 2026-05-06 11:33 | 51.40041 | 7.35353 | 18503 ft | 381 kts | 198° |
| 2026-05-06 11:34 | 51.37390 | 7.34692 | 18106 ft | 380 kts | 180° |
| 2026-05-06 11:34 | 51.35581 | 7.35047 | 17731 ft | 381 kts | 167° |
| 2026-05-06 11:34 | 51.33166 | 7.36757 | 17243 ft | 382 kts | 147° |
| 2026-05-06 11:34 | 51.31226 | 7.39724 | 16718 ft | 384 kts | 127° |
| 2026-05-06 11:35 | 51.29993 | 7.43773 | 16136 ft | 387 kts | 107° |
| 2026-05-06 11:35 | 51.29719 | 7.47991 | 15594 ft | 389 kts | 86° |
| 2026-05-06 11:35 | 51.30364 | 7.52241 | 15062 ft | 389 kts | 66° |
| 2026-05-06 11:35 | 51.31842 | 7.55837 | 14559 ft | 386 kts | 45° |
| 2026-05-06 11:36 | 51.33938 | 7.58358 | 14086 ft | 374 kts | 25° |
| 2026-05-06 11:36 | 51.36364 | 7.59570 | 13466 ft | 369 kts | 4° |
| 2026-05-06 11:36 | 51.38909 | 7.59365 | 12777 ft | 365 kts | 345° |
| 2026-05-06 11:36 | 51.41363 | 7.58263 | 12097 ft | 362 kts | 340° |
| 2026-05-06 11:37 | 51.43771 | 7.56983 | 11389 ft | 361 kts | 339° |
| 2026-05-06 11:37 | 51.46111 | 7.55584 | 10665 ft | 357 kts | 331° |
| 2026-05-06 11:37 | 51.48298 | 7.53756 | 10009 ft | 351 kts | 330° |
| 2026-05-06 11:37 | 51.50484 | 7.51975 | 9327 ft | 353 kts | 331° |
| 2026-05-06 11:38 | 51.52597 | 7.49961 | 8595 ft | 354 kts | 318° |
| 2026-05-06 11:38 | 51.54162 | 7.46944 | 7912 ft | 352 kts | 296° |
| 2026-05-06 11:38 | 51.54913 | 7.43315 | 7227 ft | 343 kts | 275° |
| 2026-05-06 11:38 | 51.54769 | 7.39552 | 6554 ft | 335 kts | 254° |
| 2026-05-06 11:39 | 51.53744 | 7.36211 | 5855 ft | 329 kts | 231° |
| 2026-05-06 11:39 | 51.52042 | 7.33801 | 4938 ft | 330 kts | 210° |
| 2026-05-06 11:39 | 51.49848 | 7.32682 | 4323 ft | 329 kts | 184° |
| 2026-05-06 11:39 | 51.47663 | 7.32750 | 4161 ft | 308 kts | 174° |
| 2026-05-06 11:40 | 51.45649 | 7.33712 | 4000 ft | 288 kts | 145° |
| 2026-05-06 11:40 | 51.44324 | 7.35993 | 3595 ft | 278 kts | 112° |
| 2026-05-06 11:40 | 51.44043 | 7.38901 | 3413 ft | 260 kts | 79° |
| 2026-05-06 11:40 | 51.44763 | 7.41450 | 3133 ft | 248 kts | 53° |
| 2026-05-06 11:41 | 51.45707 | 7.43739 | 2791 ft | 243 kts | 59° |
| 2026-05-06 11:41 | 51.46513 | 7.46059 | 2480 ft | 234 kts | 60° |
| 2026-05-06 11:41 | 51.47289 | 7.48296 | 2149 ft | 224 kts | 59° |
| 2026-05-06 11:41 | 51.48023 | 7.50394 | 1876 ft | 211 kts | 59° |
| 2026-05-06 11:42 | 51.48719 | 7.52379 | 1606 ft | 193 kts | 59° |
| 2026-05-06 11:42 | 51.49344 | 7.54157 | 1344 ft | 177 kts | 58° |
| 2026-05-06 11:42 | 51.49914 | 7.55811 | 1139 ft | 163 kts | 60° |
| 2026-05-06 11:42 | 51.50451 | 7.57358 | 924 ft | 157 kts | 57° |
| 2026-05-06 11:43 | 51.50997 | 7.58879 | 644 ft | 152 kts | 59° |
| 2026-05-06 11:43 | 51.51495 | 7.60299 | 491 ft | 144 kts | 57° |
| 2026-05-06 11:43 | 51.51996 | 7.61693 | 418 ft | 141 kts | 58° |
| 2026-05-06 11:44 | 51.52327 | 7.62621 | 404 ft | 13 kts | 62° |
| 2026-05-06 11:44 | 51.52329 | 7.62696 | 404 ft | 0 kts | 121° |
| 2026-05-06 11:44 | 51.52324 | 7.62700 | 402 ft | 1 kts | 143° |
| 2026-05-06 11:45 | 51.52181 | 7.62748 | 402 ft | 27 kts | 226° |
| 2026-05-06 11:45 | 51.52099 | 7.62523 | 409 ft | 20 kts | 240° |
| 2026-05-06 11:45 | 51.52037 | 7.62347 | 411 ft | 17 kts | 240° |
| 2026-05-06 11:45 | 51.51978 | 7.62180 | 415 ft | 20 kts | 240° |
| 2026-05-06 11:46 | 51.51896 | 7.61946 | 411 ft | 28 kts | 240° |
| 2026-05-06 11:46 | 51.51786 | 7.61636 | 417 ft | 35 kts | 240° |
| 2026-05-06 11:46 | 51.51718 | 7.61438 | 421 ft | 9 kts | 237° |
| 2026-05-06 11:46 | 51.51710 | 7.61427 | 423 ft | 0 kts | 211° |
| 2026-05-06 11:47 | 51.51705 | 7.61428 | 424 ft | 2 kts | 176° |
| 2026-05-06 11:47 | 51.51636 | 7.61336 | 431 ft | 17 kts | 242° |
| 2026-05-06 11:47 | 51.51591 | 7.61300 | 426 ft | 0 kts | 161° |
| 2026-05-06 11:48 | 51.51590 | 7.61301 | 426 ft | 0 kts | 157° |
| 2026-05-06 11:48 | 51.51587 | 7.61303 | 428 ft | 0 kts | 157° |
| 2026-05-06 11:48 | 51.51585 | 7.61305 | 422 ft | 0 kts | 156° |
| 2026-05-06 11:48 | 51.51584 | 7.61306 | 422 ft | 0 kts | 154° |